EDDR/SCN METAR and TAF weather

Enter ICAO airport designator
Station Type Date Time Source
EDDR METAR 2022/09/26 09:20 UTC NOAA

EDDR 260920Z AUTO 22008KT 190V250 9999 FEW008 BKN015 11/08 Q1008 BECMG SCT012


Station Type Date Time Source
EDDR Decoded METAR 2022/09/26 09:20 UTC NOAA

Saarbruecken / Ensheim, Germany (EDDR) 49-13N 007-07E 320M
Sep 26, 2022 - 05:20 AM EDT / 2022.09.26 0920 UTC
Wind: from the SW (220 degrees) at 9 MPH (8 KT) (direction variable):0
Visibility: greater than 7 mile(s):0
Sky conditions: mostly cloudy
Temperature: 51 F (11 C)
Dew Point: 46 F (8 C)
Relative Humidity: 81%
Pressure (altimeter): 29.77 in. Hg (1008 hPa)
ob: EDDR 260920Z AUTO 22008KT 190V250 9999 FEW008 BKN015 11/08 Q1008 BECMG SCT012
cycle: 9

Station Type Date Time Source
EDDR TAF 2022/09/26 06:27 UTC NOAA

TAF EDDR 260500Z 2606/2706 22003KT 9999 SCT040
TEMPO 2606/2608 3000 BR
BECMG 2606/2608 22008KT
BECMG 2609/2611 23013KT
TEMPO 2611/2616 21015G25KT
TEMPO 2616/2624 4000 RA BKN012
BECMG 2621/2624 BKN012
TEMPO 2700/2706 4000 RA BKN006

Example: see airport list